Terminal Aerodrome Forecast
Issued by NWS

Home | Current Version | Previous Version | Text Only | Print | Product List | Glossary On
Versions: 1 2 3 4 5 6 7 8 9 10 11 12 13 14 15
589
FTUS42 KMLB 241515 AAA
TAFTIX
TAF AMD
KTIX 241515Z 2415/2512 32010KT P6SM VCSH BKN006 OVC012
     FM241700 33012KT P6SM SCT010 OVC020
     FM250000 34006KT P6SM SCT008 OVC012=

USA.gov is the U.S. government's official web portal to all federal, state and local government web resources and services.